sensor_id;sensor_type;location;lat;lon;timestamp;temperature;humidity
2010;DHT22;1008;47.404;8.502;2022-11-20T00:00:19;7.60;99.90
2010;DHT22;1008;47.404;8.502;2022-11-20T00:02:46;7.70;99.90
2010;DHT22;1008;47.404;8.502;2022-11-20T00:05:13;7.70;99.90
2010;DHT22;1008;47.404;8.502;2022-11-20T00:07:40;7.80;99.90
2010;DHT22;1008;47.404;8.502;2022-11-20T00:10:07;7.80;99.90
2010;DHT22;1008;47.404;8.502;2022-11-20T00:12:34;7.70;99.90
2010;DHT22;1008;47.404;8.502;2022-11-20T00:15:01;7.80;99.90
2010;DHT22;1008;47.404;8.502;2022-11-20T00:17:29;7.80;99.90
2010;DHT22;1008;47.404;8.502;2022-11-20T00:19:55;7.80;99.90
2010;DHT22;1008;47.404;8.502;2022-11-20T00:22:22;7.90;99.90
2010;DHT22;1008;47.404;8.502;2022-11-20T00:24:49;8.00;99.90
2010;DHT22;1008;47.404;8.502;2022-11-20T00:27:16;8.00;99.90
2010;DHT22;1008;47.404;8.502;2022-11-20T00:29:42;7.90;99.90
2010;DHT22;1008;47.404;8.502;2022-11-20T00:32:09;8.10;99.90
2010;DHT22;1008;47.404;8.502;2022-11-20T00:34:37;8.20;99.90
2010;DHT22;1008;47.404;8.502;2022-11-20T00:37:04;8.10;99.90
2010;DHT22;1008;47.404;8.502;2022-11-20T00:39:31;8.00;99.90
2010;DHT22;1008;47.404;8.502;2022-11-20T00:41:57;7.90;99.90
2010;DHT22;1008;47.404;8.502;2022-11-20T00:44:24;7.90;99.90
2010;DHT22;1008;47.404;8.502;2022-11-20T00:46:51;7.80;99.90
2010;DHT22;1008;47.404;8.502;2022-11-20T00:49:18;7.70;99.90
2010;DHT22;1008;47.404;8.502;2022-11-20T00:51:46;7.70;99.90
2010;DHT22;1008;47.404;8.502;2022-11-20T00:54:12;7.80;99.90
2010;DHT22;1008;47.404;8.502;2022-11-20T00:56:39;7.80;99.90
2010;DHT22;1008;47.404;8.502;2022-11-20T00:59:08;7.80;99.90
2010;DHT22;1008;47.404;8.502;2022-11-20T01:01:36;7.90;99.90
2010;DHT22;1008;47.404;8.502;2022-11-20T01:04:03;7.80;99.90
2010;DHT22;1008;47.404;8.502;2022-11-20T01:06:32;7.90;99.90
2010;DHT22;1008;47.404;8.502;2022-11-20T01:09:02;7.90;99.90
2010;DHT22;1008;47.404;8.502;2022-11-20T01:11:31;7.80;99.90
2010;DHT22;1008;47.404;8.502;2022-11-20T01:14:00;7.80;99.90
2010;DHT22;1008;47.404;8.502;2022-11-20T01:16:28;7.70;99.90
2010;DHT22;1008;47.404;8.502;2022-11-20T01:18:57;7.80;99.90
2010;DHT22;1008;47.404;8.502;2022-11-20T01:21:26;7.80;99.90
2010;DHT22;1008;47.404;8.502;2022-11-20T01:23:54;7.70;99.90
2010;DHT22;1008;47.404;8.502;2022-11-20T01:26:24;7.70;99.90
2010;DHT22;1008;47.404;8.502;2022-11-20T01:28:52;7.60;99.90
2010;DHT22;1008;47.404;8.502;2022-11-20T01:31:21;7.60;99.90
2010;DHT22;1008;47.404;8.502;2022-11-20T01:33:49;7.60;99.90
2010;DHT22;1008;47.404;8.502;2022-11-20T01:36:18;7.60;99.90
2010;DHT22;1008;47.404;8.502;2022-11-20T01:38:45;7.70;99.90
2010;DHT22;1008;47.404;8.502;2022-11-20T01:41:14;7.60;99.90
2010;DHT22;1008;47.404;8.502;2022-11-20T01:44:04;7.60;99.90
2010;DHT22;1008;47.404;8.502;2022-11-20T01:46:30;7.80;99.90
2010;DHT22;1008;47.404;8.502;2022-11-20T01:49:01;7.70;99.90
2010;DHT22;1008;47.404;8.502;2022-11-20T01:51:33;7.60;99.90
2010;DHT22;1008;47.404;8.502;2022-11-20T01:54:03;7.60;99.90
2010;DHT22;1008;47.404;8.502;2022-11-20T01:56:33;7.60;99.90
2010;DHT22;1008;47.404;8.502;2022-11-20T01:59:04;7.50;99.90
2010;DHT22;1008;47.404;8.502;2022-11-20T02:01:32;7.60;99.90
2010;DHT22;1008;47.404;8.502;2022-11-20T02:03:59;7.60;99.90
2010;DHT22;1008;47.404;8.502;2022-11-20T02:06:29;7.50;99.90
2010;DHT22;1008;47.404;8.502;2022-11-20T02:08:57;7.70;99.90
2010;DHT22;1008;47.404;8.502;2022-11-20T02:11:24;7.80;99.90
2010;DHT22;1008;47.404;8.502;2022-11-20T02:13:50;7.70;99.90
2010;DHT22;1008;47.404;8.502;2022-11-20T02:16:21;7.60;99.90
2010;DHT22;1008;47.404;8.502;2022-11-20T02:18:49;7.50;99.90
2010;DHT22;1008;47.404;8.502;2022-11-20T02:21:25;7.40;99.90
2010;DHT22;1008;47.404;8.502;2022-11-20T02:24:04;7.50;99.90
2010;DHT22;1008;47.404;8.502;2022-11-20T02:26:33;7.50;99.90
2010;DHT22;1008;47.404;8.502;2022-11-20T02:29:02;7.50;99.90
2010;DHT22;1008;47.404;8.502;2022-11-20T02:31:33;7.40;99.90
2010;DHT22;1008;47.404;8.502;2022-11-20T02:34:00;7.40;99.90
2010;DHT22;1008;47.404;8.502;2022-11-20T02:36:28;7.50;99.90
2010;DHT22;1008;47.404;8.502;2022-11-20T02:38:57;7.50;99.90
2010;DHT22;1008;47.404;8.502;2022-11-20T02:41:32;7.80;99.90
2010;DHT22;1008;47.404;8.502;2022-11-20T02:43:59;7.70;99.90
2010;DHT22;1008;47.404;8.502;2022-11-20T02:46:26;7.60;99.90
2010;DHT22;1008;47.404;8.502;2022-11-20T02:48:52;7.70;99.90
2010;DHT22;1008;47.404;8.502;2022-11-20T02:51:19;7.80;99.90
2010;DHT22;1008;47.404;8.502;2022-11-20T02:53:46;7.80;99.90
2010;DHT22;1008;47.404;8.502;2022-11-20T02:56:13;7.90;99.90
2010;DHT22;1008;47.404;8.502;2022-11-20T02:58:41;7.90;99.90
2010;DHT22;1008;47.404;8.502;2022-11-20T03:01:08;8.00;99.90
2010;DHT22;1008;47.404;8.502;2022-11-20T03:03:34;8.10;99.90
2010;DHT22;1008;47.404;8.502;2022-11-20T03:06:01;8.00;99.90
2010;DHT22;1008;47.404;8.502;2022-11-20T03:08:28;7.90;99.90
2010;DHT22;1008;47.404;8.502;2022-11-20T03:10:55;7.90;99.90
2010;DHT22;1008;47.404;8.502;2022-11-20T03:13:22;8.00;99.90
2010;DHT22;1008;47.404;8.502;2022-11-20T03:15:50;8.00;99.90
2010;DHT22;1008;47.404;8.502;2022-11-20T03:18:16;8.00;99.90
2010;DHT22;1008;47.404;8.502;2022-11-20T03:20:43;8.00;99.90
2010;DHT22;1008;47.404;8.502;2022-11-20T03:23:10;8.00;99.90
2010;DHT22;1008;47.404;8.502;2022-11-20T03:25:37;8.10;99.90
2010;DHT22;1008;47.404;8.502;2022-11-20T03:28:03;8.10;99.90
2010;DHT22;1008;47.404;8.502;2022-11-20T03:30:30;8.10;99.90
2010;DHT22;1008;47.404;8.502;2022-11-20T03:32:58;8.30;99.90
2010;DHT22;1008;47.404;8.502;2022-11-20T03:35:25;7.90;99.90
2010;DHT22;1008;47.404;8.502;2022-11-20T03:37:52;7.90;99.90
2010;DHT22;1008;47.404;8.502;2022-11-20T03:40:19;8.00;99.90
2010;DHT22;1008;47.404;8.502;2022-11-20T03:42:45;8.00;99.90
2010;DHT22;1008;47.404;8.502;2022-11-20T03:45:12;7.90;99.90
2010;DHT22;1008;47.404;8.502;2022-11-20T03:47:39;8.00;99.90
2010;DHT22;1008;47.404;8.502;2022-11-20T03:50:09;7.70;99.90
2010;DHT22;1008;47.404;8.502;2022-11-20T03:52:36;7.60;99.90
2010;DHT22;1008;47.404;8.502;2022-11-20T03:55:03;7.70;99.90
2010;DHT22;1008;47.404;8.502;2022-11-20T03:57:30;7.70;99.90
2010;DHT22;1008;47.404;8.502;2022-11-20T03:59:57;7.70;99.90
2010;DHT22;1008;47.404;8.502;2022-11-20T04:02:23;7.70;99.90
2010;DHT22;1008;47.404;8.502;2022-11-20T04:04:50;7.60;99.90
2010;DHT22;1008;47.404;8.502;2022-11-20T04:07:18;7.70;99.90
2010;DHT22;1008;47.404;8.502;2022-11-20T04:09:45;7.70;99.90
2010;DHT22;1008;47.404;8.502;2022-11-20T04:12:12;7.70;99.90
2010;DHT22;1008;47.404;8.502;2022-11-20T04:14:38;7.70;99.90
2010;DHT22;1008;47.404;8.502;2022-11-20T04:17:05;7.70;99.90
2010;DHT22;1008;47.404;8.502;2022-11-20T04:19:32;7.70;99.90
2010;DHT22;1008;47.404;8.502;2022-11-20T04:21:58;7.70;99.90
2010;DHT22;1008;47.404;8.502;2022-11-20T04:24:27;7.60;99.90
2010;DHT22;1008;47.404;8.502;2022-11-20T04:26:54;7.70;99.90
2010;DHT22;1008;47.404;8.502;2022-11-20T04:29:21;7.50;99.90
2010;DHT22;1008;47.404;8.502;2022-11-20T04:31:47;7.70;99.90
2010;DHT22;1008;47.404;8.502;2022-11-20T04:34:14;7.80;99.90
2010;DHT22;1008;47.404;8.502;2022-11-20T04:36:41;7.60;99.90
2010;DHT22;1008;47.404;8.502;2022-11-20T04:39:13;7.50;99.90
2010;DHT22;1008;47.404;8.502;2022-11-20T04:41:42;7.50;99.90
2010;DHT22;1008;47.404;8.502;2022-11-20T04:44:09;7.60;99.90
2010;DHT22;1008;47.404;8.502;2022-11-20T04:46:37;7.60;99.90
2010;DHT22;1008;47.404;8.502;2022-11-20T04:49:04;7.60;99.90
2010;DHT22;1008;47.404;8.502;2022-11-20T04:51:32;7.60;99.90
2010;DHT22;1008;47.404;8.502;2022-11-20T04:53:59;7.60;99.90
2010;DHT22;1008;47.404;8.502;2022-11-20T04:56:25;7.70;99.90
2010;DHT22;1008;47.404;8.502;2022-11-20T04:58:54;7.50;99.90
2010;DHT22;1008;47.404;8.502;2022-11-20T05:01:22;7.50;99.90
2010;DHT22;1008;47.404;8.502;2022-11-20T05:03:49;7.30;99.90
2010;DHT22;1008;47.404;8.502;2022-11-20T05:06:18;7.10;99.90
2010;DHT22;1008;47.404;8.502;2022-11-20T05:08:45;7.10;99.90
2010;DHT22;1008;47.404;8.502;2022-11-20T05:11:13;7.10;99.90
2010;DHT22;1008;47.404;8.502;2022-11-20T05:13:40;7.10;99.90
2010;DHT22;1008;47.404;8.502;2022-11-20T05:16:10;7.00;99.90
2010;DHT22;1008;47.404;8.502;2022-11-20T05:18:37;7.10;99.90
2010;DHT22;1008;47.404;8.502;2022-11-20T05:21:05;7.10;99.90
2010;DHT22;1008;47.404;8.502;2022-11-20T05:23:33;7.40;99.90
2010;DHT22;1008;47.404;8.502;2022-11-20T05:26:00;7.20;99.90
2010;DHT22;1008;47.404;8.502;2022-11-20T05:28:28;7.00;99.90
2010;DHT22;1008;47.404;8.502;2022-11-20T05:30:56;7.20;99.90
2010;DHT22;1008;47.404;8.502;2022-11-20T05:33:24;7.10;99.90
2010;DHT22;1008;47.404;8.502;2022-11-20T05:35:51;7.20;99.90
2010;DHT22;1008;47.404;8.502;2022-11-20T05:38:17;7.00;99.90
2010;DHT22;1008;47.404;8.502;2022-11-20T05:40:44;6.90;99.90
2010;DHT22;1008;47.404;8.502;2022-11-20T05:43:11;7.00;99.90
2010;DHT22;1008;47.404;8.502;2022-11-20T05:45:38;7.20;99.90
2010;DHT22;1008;47.404;8.502;2022-11-20T05:48:05;7.30;99.90
2010;DHT22;1008;47.404;8.502;2022-11-20T05:50:33;7.20;99.90
2010;DHT22;1008;47.404;8.502;2022-11-20T05:53:00;7.20;99.90
2010;DHT22;1008;47.404;8.502;2022-11-20T05:55:27;7.10;99.90
2010;DHT22;1008;47.404;8.502;2022-11-20T05:57:54;7.10;99.90
2010;DHT22;1008;47.404;8.502;2022-11-20T06:00:21;7.20;99.90
2010;DHT22;1008;47.404;8.502;2022-11-20T06:02:48;7.20;99.90
2010;DHT22;1008;47.404;8.502;2022-11-20T06:05:15;7.20;99.90
2010;DHT22;1008;47.404;8.502;2022-11-20T06:07:43;7.20;99.90
2010;DHT22;1008;47.404;8.502;2022-11-20T06:10:10;7.10;99.90
2010;DHT22;1008;47.404;8.502;2022-11-20T06:12:37;7.10;99.90
2010;DHT22;1008;47.404;8.502;2022-11-20T06:15:04;6.90;99.90
2010;DHT22;1008;47.404;8.502;2022-11-20T06:17:31;6.90;99.90
2010;DHT22;1008;47.404;8.502;2022-11-20T06:19:58;6.80;99.90
2010;DHT22;1008;47.404;8.502;2022-11-20T06:22:25;6.90;99.90
2010;DHT22;1008;47.404;8.502;2022-11-20T06:24:53;6.60;99.90
2010;DHT22;1008;47.404;8.502;2022-11-20T06:27:19;6.50;99.90
2010;DHT22;1008;47.404;8.502;2022-11-20T06:29:46;6.40;99.90
2010;DHT22;1008;47.404;8.502;2022-11-20T06:32:13;6.70;99.90
2010;DHT22;1008;47.404;8.502;2022-11-20T06:34:40;6.20;99.90
2010;DHT22;1008;47.404;8.502;2022-11-20T06:37:06;6.30;99.90
2010;DHT22;1008;47.404;8.502;2022-11-20T06:39:33;6.60;99.90
2010;DHT22;1008;47.404;8.502;2022-11-20T06:42:01;6.60;99.90
2010;DHT22;1008;47.404;8.502;2022-11-20T06:44:28;6.70;99.90
2010;DHT22;1008;47.404;8.502;2022-11-20T06:46:55;6.60;99.90
2010;DHT22;1008;47.404;8.502;2022-11-20T06:49:21;6.60;99.90
2010;DHT22;1008;47.404;8.502;2022-11-20T06:51:48;6.80;99.90
2010;DHT22;1008;47.404;8.502;2022-11-20T06:54:15;7.10;99.90
2010;DHT22;1008;47.404;8.502;2022-11-20T06:56:42;6.80;99.90
2010;DHT22;1008;47.404;8.502;2022-11-20T06:59:10;6.80;99.90
2010;DHT22;1008;47.404;8.502;2022-11-20T07:01:36;6.80;99.90
2010;DHT22;1008;47.404;8.502;2022-11-20T07:04:03;7.00;99.90
2010;DHT22;1008;47.404;8.502;2022-11-20T07:06:30;6.90;99.90
2010;DHT22;1008;47.404;8.502;2022-11-20T07:08:57;6.90;99.90
2010;DHT22;1008;47.404;8.502;2022-11-20T07:11:24;6.90;99.90
2010;DHT22;1008;47.404;8.502;2022-11-20T07:13:51;6.70;99.90
2010;DHT22;1008;47.404;8.502;2022-11-20T07:16:19;6.70;99.90
2010;DHT22;1008;47.404;8.502;2022-11-20T07:18:46;6.70;99.90
2010;DHT22;1008;47.404;8.502;2022-11-20T07:21:12;7.00;99.90
2010;DHT22;1008;47.404;8.502;2022-11-20T07:23:39;6.90;99.90
2010;DHT22;1008;47.404;8.502;2022-11-20T07:26:07;6.80;99.90
2010;DHT22;1008;47.404;8.502;2022-11-20T07:28:35;7.00;99.90
2010;DHT22;1008;47.404;8.502;2022-11-20T07:31:02;7.00;99.90
2010;DHT22;1008;47.404;8.502;2022-11-20T07:33:31;7.20;99.90
2010;DHT22;1008;47.404;8.502;2022-11-20T07:35:58;7.60;99.90
2010;DHT22;1008;47.404;8.502;2022-11-20T07:38:25;7.70;99.90
2010;DHT22;1008;47.404;8.502;2022-11-20T07:40:53;7.60;99.90
2010;DHT22;1008;47.404;8.502;2022-11-20T07:43:21;7.60;99.90
2010;DHT22;1008;47.404;8.502;2022-11-20T07:45:47;7.50;99.90
2010;DHT22;1008;47.404;8.502;2022-11-20T07:48:14;7.40;99.90
2010;DHT22;1008;47.404;8.502;2022-11-20T07:50:42;7.50;99.90
2010;DHT22;1008;47.404;8.502;2022-11-20T07:53:09;7.50;99.90
2010;DHT22;1008;47.404;8.502;2022-11-20T07:55:36;7.40;99.90
2010;DHT22;1008;47.404;8.502;2022-11-20T07:58:02;7.30;99.90
2010;DHT22;1008;47.404;8.502;2022-11-20T08:00:29;7.30;99.90
2010;DHT22;1008;47.404;8.502;2022-11-20T08:02:56;7.30;99.90
2010;DHT22;1008;47.404;8.502;2022-11-20T08:05:22;7.10;99.90
2010;DHT22;1008;47.404;8.502;2022-11-20T08:07:51;6.90;99.90
2010;DHT22;1008;47.404;8.502;2022-11-20T08:10:17;7.00;99.90
2010;DHT22;1008;47.404;8.502;2022-11-20T08:12:45;6.70;99.90
2010;DHT22;1008;47.404;8.502;2022-11-20T08:15:30;6.90;99.90
2010;DHT22;1008;47.404;8.502;2022-11-20T08:18:01;6.80;99.90
2010;DHT22;1008;47.404;8.502;2022-11-20T08:20:28;6.90;99.90
2010;DHT22;1008;47.404;8.502;2022-11-20T08:22:59;6.90;99.90
2010;DHT22;1008;47.404;8.502;2022-11-20T08:25:27;6.90;99.90
2010;DHT22;1008;47.404;8.502;2022-11-20T08:27:56;6.90;99.90
2010;DHT22;1008;47.404;8.502;2022-11-20T08:30:23;6.70;99.90
2010;DHT22;1008;47.404;8.502;2022-11-20T08:32:50;6.70;99.90
2010;DHT22;1008;47.404;8.502;2022-11-20T08:35:16;6.90;99.90
2010;DHT22;1008;47.404;8.502;2022-11-20T08:37:46;6.80;99.90
2010;DHT22;1008;47.404;8.502;2022-11-20T08:40:15;6.90;99.90
2010;DHT22;1008;47.404;8.502;2022-11-20T08:42:46;7.00;99.90
2010;DHT22;1008;47.404;8.502;2022-11-20T08:45:14;7.10;99.90
2010;DHT22;1008;47.404;8.502;2022-11-20T08:47:40;7.10;99.90
2010;DHT22;1008;47.404;8.502;2022-11-20T08:50:08;7.10;99.90
2010;DHT22;1008;47.404;8.502;2022-11-20T08:52:35;7.10;99.90
2010;DHT22;1008;47.404;8.502;2022-11-20T08:55:03;7.10;99.90
2010;DHT22;1008;47.404;8.502;2022-11-20T08:57:32;7.20;99.90
2010;DHT22;1008;47.404;8.502;2022-11-20T09:00:00;7.50;99.90
2010;DHT22;1008;47.404;8.502;2022-11-20T09:02:27;7.10;99.90
2010;DHT22;1008;47.404;8.502;2022-11-20T09:04:53;7.20;99.90
2010;DHT22;1008;47.404;8.502;2022-11-20T09:07:23;7.30;99.90
2010;DHT22;1008;47.404;8.502;2022-11-20T09:09:50;7.60;99.90
2010;DHT22;1008;47.404;8.502;2022-11-20T09:12:17;7.50;99.90
2010;DHT22;1008;47.404;8.502;2022-11-20T09:14:45;7.40;99.90
2010;DHT22;1008;47.404;8.502;2022-11-20T09:17:12;7.60;99.90
2010;DHT22;1008;47.404;8.502;2022-11-20T09:19:40;7.70;99.90
2010;DHT22;1008;47.404;8.502;2022-11-20T09:22:07;7.70;99.90
2010;DHT22;1008;47.404;8.502;2022-11-20T09:24:33;7.60;99.90
2010;DHT22;1008;47.404;8.502;2022-11-20T09:27:04;7.50;99.90
2010;DHT22;1008;47.404;8.502;2022-11-20T09:29:31;7.50;99.90
2010;DHT22;1008;47.404;8.502;2022-11-20T09:31:59;7.60;99.90
2010;DHT22;1008;47.404;8.502;2022-11-20T09:34:26;7.70;99.90
2010;DHT22;1008;47.404;8.502;2022-11-20T09:36:52;7.80;99.90
2010;DHT22;1008;47.404;8.502;2022-11-20T09:39:19;7.70;99.90
2010;DHT22;1008;47.404;8.502;2022-11-20T09:42:03;7.70;99.90
2010;DHT22;1008;47.404;8.502;2022-11-20T09:44:47;7.80;99.90
2010;DHT22;1008;47.404;8.502;2022-11-20T09:47:26;7.70;99.90
2010;DHT22;1008;47.404;8.502;2022-11-20T09:50:07;7.70;99.90
2010;DHT22;1008;47.404;8.502;2022-11-20T09:52:48;7.80;99.90
2010;DHT22;1008;47.404;8.502;2022-11-20T09:55:23;7.60;99.90
2010;DHT22;1008;47.404;8.502;2022-11-20T09:57:51;7.30;99.90
2010;DHT22;1008;47.404;8.502;2022-11-20T10:00:19;7.30;99.90
2010;DHT22;1008;47.404;8.502;2022-11-20T10:02:52;7.40;99.90
2010;DHT22;1008;47.404;8.502;2022-11-20T10:05:25;7.50;99.90
2010;DHT22;1008;47.404;8.502;2022-11-20T10:07:58;7.50;99.90
2010;DHT22;1008;47.404;8.502;2022-11-20T10:10:33;8.00;99.90
2010;DHT22;1008;47.404;8.502;2022-11-20T10:13:14;8.10;99.90
2010;DHT22;1008;47.404;8.502;2022-11-20T10:15:50;8.10;99.90
2010;DHT22;1008;47.404;8.502;2022-11-20T10:18:29;8.10;99.90
2010;DHT22;1008;47.404;8.502;2022-11-20T10:21:04;8.80;99.90
2010;DHT22;1008;47.404;8.502;2022-11-20T10:23:49;9.30;99.90
2010;DHT22;1008;47.404;8.502;2022-11-20T10:26:22;9.60;99.90
2010;DHT22;1008;47.404;8.502;2022-11-20T10:29:09;9.60;99.90
2010;DHT22;1008;47.404;8.502;2022-11-20T10:31:38;9.80;99.90
2010;DHT22;1008;47.404;8.502;2022-11-20T10:34:14;9.60;99.90
2010;DHT22;1008;47.404;8.502;2022-11-20T10:36:46;9.80;99.90
2010;DHT22;1008;47.404;8.502;2022-11-20T10:39:17;9.70;99.90
2010;DHT22;1008;47.404;8.502;2022-11-20T10:41:46;9.40;99.90
2010;DHT22;1008;47.404;8.502;2022-11-20T10:44:16;9.70;99.90
2010;DHT22;1008;47.404;8.502;2022-11-20T10:47:05;9.90;99.90
2010;DHT22;1008;47.404;8.502;2022-11-20T10:49:34;10.20;99.90
2010;DHT22;1008;47.404;8.502;2022-11-20T10:52:07;10.00;99.90
2010;DHT22;1008;47.404;8.502;2022-11-20T10:54:41;9.90;99.90
2010;DHT22;1008;47.404;8.502;2022-11-20T10:57:18;9.40;99.90
2010;DHT22;1008;47.404;8.502;2022-11-20T11:00:00;9.20;99.90
2010;DHT22;1008;47.404;8.502;2022-11-20T11:02:34;8.80;99.90
2010;DHT22;1008;47.404;8.502;2022-11-20T11:05:17;8.90;99.90
2010;DHT22;1008;47.404;8.502;2022-11-20T11:07:50;9.20;99.90
2010;DHT22;1008;47.404;8.502;2022-11-20T11:10:19;9.10;99.90
2010;DHT22;1008;47.404;8.502;2022-11-20T11:12:47;9.30;99.90
2010;DHT22;1008;47.404;8.502;2022-11-20T11:15:25;9.50;99.90
2010;DHT22;1008;47.404;8.502;2022-11-20T11:17:52;9.80;99.90
2010;DHT22;1008;47.404;8.502;2022-11-20T11:20:22;9.70;99.90
2010;DHT22;1008;47.404;8.502;2022-11-20T11:22:51;10.20;99.90
2010;DHT22;1008;47.404;8.502;2022-11-20T11:25:24;10.40;99.90
2010;DHT22;1008;47.404;8.502;2022-11-20T11:27:52;10.40;99.90
2010;DHT22;1008;47.404;8.502;2022-11-20T11:30:20;10.40;99.90
2010;DHT22;1008;47.404;8.502;2022-11-20T11:32:48;10.30;99.90
2010;DHT22;1008;47.404;8.502;2022-11-20T11:35:24;10.30;99.90
2010;DHT22;1008;47.404;8.502;2022-11-20T11:37:53;9.70;99.90
2010;DHT22;1008;47.404;8.502;2022-11-20T11:40:21;9.20;99.90
2010;DHT22;1008;47.404;8.502;2022-11-20T11:42:54;9.00;99.90
2010;DHT22;1008;47.404;8.502;2022-11-20T11:45:23;8.80;99.90
2010;DHT22;1008;47.404;8.502;2022-11-20T11:47:49;8.80;99.90
2010;DHT22;1008;47.404;8.502;2022-11-20T11:50:19;8.90;99.90
2010;DHT22;1008;47.404;8.502;2022-11-20T11:52:54;8.70;99.90
2010;DHT22;1008;47.404;8.502;2022-11-20T11:55:29;8.80;99.90
2010;DHT22;1008;47.404;8.502;2022-11-20T11:58:06;9.60;99.90
2010;DHT22;1008;47.404;8.502;2022-11-20T12:00:34;9.70;99.90
2010;DHT22;1008;47.404;8.502;2022-11-20T12:03:09;10.10;99.90
2010;DHT22;1008;47.404;8.502;2022-11-20T12:05:40;10.40;99.90
2010;DHT22;1008;47.404;8.502;2022-11-20T12:08:15;9.90;99.90
2010;DHT22;1008;47.404;8.502;2022-11-20T12:10:46;9.70;99.90
2010;DHT22;1008;47.404;8.502;2022-11-20T12:13:25;9.70;99.90
2010;DHT22;1008;47.404;8.502;2022-11-20T12:15:54;9.90;99.90
2010;DHT22;1008;47.404;8.502;2022-11-20T12:18:22;10.30;99.90
2010;DHT22;1008;47.404;8.502;2022-11-20T12:20:59;10.70;99.90
2010;DHT22;1008;47.404;8.502;2022-11-20T12:23:35;10.80;99.90
2010;DHT22;1008;47.404;8.502;2022-11-20T12:26:08;10.80;99.90
2010;DHT22;1008;47.404;8.502;2022-11-20T12:28:48;10.60;99.90
2010;DHT22;1008;47.404;8.502;2022-11-20T12:31:37;10.40;99.90
2010;DHT22;1008;47.404;8.502;2022-11-20T12:34:20;10.30;99.90
2010;DHT22;1008;47.404;8.502;2022-11-20T12:36:56;10.20;99.90
2010;DHT22;1008;47.404;8.502;2022-11-20T12:39:36;10.00;99.90
2010;DHT22;1008;47.404;8.502;2022-11-20T12:42:31;9.70;99.90
2010;DHT22;1008;47.404;8.502;2022-11-20T12:45:38;9.70;99.90
2010;DHT22;1008;47.404;8.502;2022-11-20T12:48:38;10.50;99.90
2010;DHT22;1008;47.404;8.502;2022-11-20T12:51:30;10.50;99.90
2010;DHT22;1008;47.404;8.502;2022-11-20T12:54:11;10.30;99.90
2010;DHT22;1008;47.404;8.502;2022-11-20T12:56:52;10.50;99.90
2010;DHT22;1008;47.404;8.502;2022-11-20T12:59:34;11.10;99.90
2010;DHT22;1008;47.404;8.502;2022-11-20T13:02:17;11.10;99.90
2010;DHT22;1008;47.404;8.502;2022-11-20T13:05:09;10.90;99.90
2010;DHT22;1008;47.404;8.502;2022-11-20T13:07:40;10.60;99.90
2010;DHT22;1008;47.404;8.502;2022-11-20T13:10:15;10.10;99.90
2010;DHT22;1008;47.404;8.502;2022-11-20T13:12:47;9.80;99.90
2010;DHT22;1008;47.404;8.502;2022-11-20T13:15:33;9.60;99.90
2010;DHT22;1008;47.404;8.502;2022-11-20T13:18:04;9.60;99.90
2010;DHT22;1008;47.404;8.502;2022-11-20T13:20:35;9.70;99.90
2010;DHT22;1008;47.404;8.502;2022-11-20T13:23:02;9.50;99.90
2010;DHT22;1008;47.404;8.502;2022-11-20T13:25:30;9.50;99.90
2010;DHT22;1008;47.404;8.502;2022-11-20T13:28:00;9.40;99.90
2010;DHT22;1008;47.404;8.502;2022-11-20T13:30:28;9.40;99.90
2010;DHT22;1008;47.404;8.502;2022-11-20T13:32:58;9.10;99.90
2010;DHT22;1008;47.404;8.502;2022-11-20T13:35:29;9.20;99.90
2010;DHT22;1008;47.404;8.502;2022-11-20T13:38:07;9.10;99.90
2010;DHT22;1008;47.404;8.502;2022-11-20T13:40:36;9.20;99.90
2010;DHT22;1008;47.404;8.502;2022-11-20T13:43:21;9.30;99.90
2010;DHT22;1008;47.404;8.502;2022-11-20T13:45:57;9.40;99.90
2010;DHT22;1008;47.404;8.502;2022-11-20T13:48:26;9.50;99.90
2010;DHT22;1008;47.404;8.502;2022-11-20T13:51:02;9.60;99.90
2010;DHT22;1008;47.404;8.502;2022-11-20T13:53:59;9.50;99.90
2010;DHT22;1008;47.404;8.502;2022-11-20T13:56:38;9.40;99.90
2010;DHT22;1008;47.404;8.502;2022-11-20T13:59:12;9.40;99.90
2010;DHT22;1008;47.404;8.502;2022-11-20T14:01:45;9.60;99.90
2010;DHT22;1008;47.404;8.502;2022-11-20T14:04:15;9.60;99.90
2010;DHT22;1008;47.404;8.502;2022-11-20T14:06:46;9.70;99.90
2010;DHT22;1008;47.404;8.502;2022-11-20T14:09:24;9.80;99.90
2010;DHT22;1008;47.404;8.502;2022-11-20T14:11:51;10.00;99.90
2010;DHT22;1008;47.404;8.502;2022-11-20T14:14:21;9.80;99.90
2010;DHT22;1008;47.404;8.502;2022-11-20T14:16:49;10.00;99.90
2010;DHT22;1008;47.404;8.502;2022-11-20T14:19:27;10.20;99.90
2010;DHT22;1008;47.404;8.502;2022-11-20T14:22:08;10.10;99.90
2010;DHT22;1008;47.404;8.502;2022-11-20T14:24:35;9.90;99.90
2010;DHT22;1008;47.404;8.502;2022-11-20T14:27:02;10.10;99.90
2010;DHT22;1008;47.404;8.502;2022-11-20T14:29:34;10.20;99.90
2010;DHT22;1008;47.404;8.502;2022-11-20T14:32:03;10.40;99.90
2010;DHT22;1008;47.404;8.502;2022-11-20T14:34:33;10.20;99.90
2010;DHT22;1008;47.404;8.502;2022-11-20T14:37:05;10.40;99.90
2010;DHT22;1008;47.404;8.502;2022-11-20T14:39:34;10.40;99.90
2010;DHT22;1008;47.404;8.502;2022-11-20T14:42:02;10.30;99.90
2010;DHT22;1008;47.404;8.502;2022-11-20T14:44:32;10.20;99.90
2010;DHT22;1008;47.404;8.502;2022-11-20T14:47:00;10.00;99.90
2010;DHT22;1008;47.404;8.502;2022-11-20T14:49:30;10.00;99.90
2010;DHT22;1008;47.404;8.502;2022-11-20T14:52:01;10.20;99.90
2010;DHT22;1008;47.404;8.502;2022-11-20T14:54:28;10.30;99.90
2010;DHT22;1008;47.404;8.502;2022-11-20T14:56:57;10.40;99.90
2010;DHT22;1008;47.404;8.502;2022-11-20T14:59:25;10.50;99.90
2010;DHT22;1008;47.404;8.502;2022-11-20T15:02:00;10.70;99.90
2010;DHT22;1008;47.404;8.502;2022-11-20T15:04:27;10.90;99.90
2010;DHT22;1008;47.404;8.502;2022-11-20T15:06:56;11.20;99.90
2010;DHT22;1008;47.404;8.502;2022-11-20T15:09:23;11.10;99.90
2010;DHT22;1008;47.404;8.502;2022-11-20T15:11:53;11.00;99.90
2010;DHT22;1008;47.404;8.502;2022-11-20T15:14:21;10.90;99.90
2010;DHT22;1008;47.404;8.502;2022-11-20T15:16:48;10.60;99.90
2010;DHT22;1008;47.404;8.502;2022-11-20T15:19:20;10.60;99.90
2010;DHT22;1008;47.404;8.502;2022-11-20T15:21:47;10.30;99.90
2010;DHT22;1008;47.404;8.502;2022-11-20T15:24:14;10.40;99.90
2010;DHT22;1008;47.404;8.502;2022-11-20T15:26:41;9.90;99.90
2010;DHT22;1008;47.404;8.502;2022-11-20T15:29:09;9.90;99.90
2010;DHT22;1008;47.404;8.502;2022-11-20T15:31:36;9.90;99.90
2010;DHT22;1008;47.404;8.502;2022-11-20T15:34:04;9.50;99.90
2010;DHT22;1008;47.404;8.502;2022-11-20T15:36:33;9.60;99.90
2010;DHT22;1008;47.404;8.502;2022-11-20T15:39:00;9.40;99.90
2010;DHT22;1008;47.404;8.502;2022-11-20T15:41:28;9.30;99.90
2010;DHT22;1008;47.404;8.502;2022-11-20T15:43:54;9.20;99.90
2010;DHT22;1008;47.404;8.502;2022-11-20T15:46:26;9.30;99.90
2010;DHT22;1008;47.404;8.502;2022-11-20T15:48:55;9.30;99.90
2010;DHT22;1008;47.404;8.502;2022-11-20T15:51:24;9.30;99.90
2010;DHT22;1008;47.404;8.502;2022-11-20T15:53:55;9.20;99.90
2010;DHT22;1008;47.404;8.502;2022-11-20T15:56:22;9.10;99.90
2010;DHT22;1008;47.404;8.502;2022-11-20T15:58:49;9.10;99.90
2010;DHT22;1008;47.404;8.502;2022-11-20T16:01:17;9.00;99.90
2010;DHT22;1008;47.404;8.502;2022-11-20T16:03:45;8.90;99.90
2010;DHT22;1008;47.404;8.502;2022-11-20T16:06:12;8.80;99.90
2010;DHT22;1008;47.404;8.502;2022-11-20T16:08:39;8.60;99.90
2010;DHT22;1008;47.404;8.502;2022-11-20T16:11:10;8.70;99.90
2010;DHT22;1008;47.404;8.502;2022-11-20T16:13:38;8.60;99.90
2010;DHT22;1008;47.404;8.502;2022-11-20T16:16:25;8.70;99.90
2010;DHT22;1008;47.404;8.502;2022-11-20T16:18:54;8.60;99.90
2010;DHT22;1008;47.404;8.502;2022-11-20T16:21:21;8.60;99.90
2010;DHT22;1008;47.404;8.502;2022-11-20T16:23:52;8.50;99.90
2010;DHT22;1008;47.404;8.502;2022-11-20T16:26:20;8.50;99.90
2010;DHT22;1008;47.404;8.502;2022-11-20T16:28:47;8.50;99.90
2010;DHT22;1008;47.404;8.502;2022-11-20T16:31:15;8.70;99.90